KDKK/DKK METAR and TAF weather

Enter ICAO airport designator
Station Type Date Time Source
KDKK METAR 2021/03/08 10:53 UTC NOAA

KDKK 081053Z AUTO 19009KT 10SM CLR M05/M10 A3044 RMK AO2 SLP319 T10501100


Station Type Date Time Source
KDKK Decoded METAR 2021/03/08 10:53 UTC NOAA

CHAUTAUQUA COUNTY/DUNKIRK, NY, United States (KDKK) 42-30N 079-17W 202M
Mar 08, 2021 - 05:53 AM EST / 2021.03.08 1053 UTC
Wind: from the S (190 degrees) at 10 MPH (9 KT):0
Visibility: 10 mile(s):0
Sky conditions: clear
Temperature: 23.0 F (-5.0 C)
Windchill: 12 F (-11 C):1
Dew Point: 14.0 F (-10.0 C)
Relative Humidity: 67%
Pressure (altimeter): 30.44 in. Hg (1030 hPa)
ob: KDKK 081053Z AUTO 19009KT 10SM CLR M05/M10 A3044 RMK AO2 SLP319 T10501100
cycle: 11

Station Type Date Time Source
KDKK TAF UTC NOAA

Error!

Example: see airport list